sensor_id;sensor_type;location;lat;lon;timestamp;pressure;altitude;pressure_sealevel;temperature;humidity
9415;BME280;4746;35.664;139.738;2023-01-28T00:01:16;99656.44;;;8.13;27.27
9415;BME280;4746;35.664;139.738;2023-01-28T00:03:44;99631.84;;;8.15;27.28
9415;BME280;4746;35.664;139.738;2023-01-28T00:06:15;99659.06;;;8.18;27.25
9415;BME280;4746;35.664;139.738;2023-01-28T00:08:45;99659.91;;;8.18;27.16
9415;BME280;4746;35.664;139.738;2023-01-28T00:11:13;99653.16;;;8.23;27.40
9415;BME280;4746;35.664;139.738;2023-01-28T00:13:41;99674.47;;;8.27;26.97
9415;BME280;4746;35.664;139.738;2023-01-28T00:16:09;99662.53;;;8.27;27.03
9415;BME280;4746;35.664;139.738;2023-01-28T00:18:37;99642.09;;;8.23;26.41
9415;BME280;4746;35.664;139.738;2023-01-28T00:21:12;99663.38;;;8.25;26.87
9415;BME280;4746;35.664;139.738;2023-01-28T00:23:42;99661.66;;;8.24;27.00
9415;BME280;4746;35.664;139.738;2023-01-28T00:26:13;99668.53;;;8.29;26.73
9415;BME280;4746;35.664;139.738;2023-01-28T00:28:42;99639.63;;;8.34;27.01
9415;BME280;4746;35.664;139.738;2023-01-28T00:31:24;99670.28;;;8.42;26.36
9415;BME280;4746;35.664;139.738;2023-01-28T00:33:55;99631.16;;;8.43;25.99
9415;BME280;4746;35.664;139.738;2023-01-28T00:36:25;99644.78;;;8.42;25.56
9415;BME280;4746;35.664;139.738;2023-01-28T00:38:56;99651.59;;;8.43;25.84
9415;BME280;4746;35.664;139.738;2023-01-28T00:41:27;99649.03;;;8.44;25.95
9415;BME280;4746;35.664;139.738;2023-01-28T00:43:55;99657.56;;;8.48;24.81
9415;BME280;4746;35.664;139.738;2023-01-28T00:46:24;99661.00;;;8.47;25.30
9415;BME280;4746;35.664;139.738;2023-01-28T00:48:53;99642.28;;;8.49;24.89
9415;BME280;4746;35.664;139.738;2023-01-28T00:51:21;99657.59;;;8.54;24.76
9415;BME280;4746;35.664;139.738;2023-01-28T00:53:49;99688.28;;;8.55;24.39
9415;BME280;4746;35.664;139.738;2023-01-28T00:56:18;99654.22;;;8.56;24.11
9415;BME280;4746;35.664;139.738;2023-01-28T00:58:47;99662.72;;;8.54;24.29
9415;BME280;4746;35.664;139.738;2023-01-28T01:01:20;99631.25;;;8.55;25.12
9415;BME280;4746;35.664;139.738;2023-01-28T01:03:49;99646.59;;;8.61;25.03
9415;BME280;4746;35.664;139.738;2023-01-28T01:06:38;99655.19;;;8.75;24.50
9415;BME280;4746;35.664;139.738;2023-01-28T01:09:10;99633.06;;;8.83;24.87
9415;BME280;4746;35.664;139.738;2023-01-28T01:11:38;99667.19;;;8.88;23.80
9415;BME280;4746;35.664;139.738;2023-01-28T01:14:05;99658.69;;;8.92;24.13
9415;BME280;4746;35.664;139.738;2023-01-28T01:16:35;99665.50;;;8.93;23.73
9415;BME280;4746;35.664;139.738;2023-01-28T01:19:04;99661.25;;;8.96;24.07
9415;BME280;4746;35.664;139.738;2023-01-28T01:21:33;99655.31;;;8.98;24.00
9415;BME280;4746;35.664;139.738;2023-01-28T01:24:00;99650.19;;;9.01;23.57
9415;BME280;4746;35.664;139.738;2023-01-28T01:26:28;99657.91;;;9.10;23.85
9415;BME280;4746;35.664;139.738;2023-01-28T01:28:55;99650.28;;;9.16;23.27
9415;BME280;4746;35.664;139.738;2023-01-28T01:31:23;99655.41;;;9.22;23.55
9415;BME280;4746;35.664;139.738;2023-01-28T01:33:52;99657.09;;;9.26;23.62
9415;BME280;4746;35.664;139.738;2023-01-28T01:36:20;99651.94;;;9.16;22.71
9415;BME280;4746;35.664;139.738;2023-01-28T01:38:51;99646.84;;;9.11;22.95
9415;BME280;4746;35.664;139.738;2023-01-28T01:41:31;99631.50;;;9.17;23.40
9415;BME280;4746;35.664;139.738;2023-01-28T01:44:03;99641.72;;;9.16;23.25
9415;BME280;4746;35.664;139.738;2023-01-28T01:49:24;99637.44;;;9.09;22.66
9415;BME280;4746;35.664;139.738;2023-01-28T01:51:59;99626.38;;;9.05;22.58
9415;BME280;4746;35.664;139.738;2023-01-28T01:54:31;99636.59;;;9.07;22.64
9415;BME280;4746;35.664;139.738;2023-01-28T01:57:02;99637.44;;;9.07;22.38
9415;BME280;4746;35.664;139.738;2023-01-28T01:59:34;99618.72;;;9.07;21.51
9415;BME280;4746;35.664;139.738;2023-01-28T02:02:06;99624.66;;;9.07;21.60
9415;BME280;4746;35.664;139.738;2023-01-28T02:04:43;99622.16;;;9.18;22.01
9415;BME280;4746;35.664;139.738;2023-01-28T02:07:16;99623.03;;;9.27;22.11
9415;BME280;4746;35.664;139.738;2023-01-28T02:09:44;99604.31;;;9.34;21.98
9415;BME280;4746;35.664;139.738;2023-01-28T02:12:17;99609.44;;;9.46;22.09
9415;BME280;4746;35.664;139.738;2023-01-28T02:15:03;99603.50;;;9.64;21.94
9415;BME280;4746;35.664;139.738;2023-01-28T02:17:33;99595.81;;;9.77;22.15
9415;BME280;4746;35.664;139.738;2023-01-28T02:20:22;99605.25;;;9.99;22.05
9415;BME280;4746;35.664;139.738;2023-01-28T02:28:53;99585.59;;;10.07;21.33
9415;BME280;4746;35.664;139.738;2023-01-28T02:32:02;99606.91;;;10.12;21.63
9415;BME280;4746;35.664;139.738;2023-01-28T02:34:39;99588.16;;;10.23;21.53
9415;BME280;4746;35.664;139.738;2023-01-28T02:40:00;99598.31;;;10.53;21.12
9415;BME280;4746;35.664;139.738;2023-01-28T02:42:36;99576.06;;;10.61;21.14
9415;BME280;4746;35.664;139.738;2023-01-28T02:45:31;99576.91;;;10.67;20.99
9415;BME280;4746;35.664;139.738;2023-01-28T02:48:21;99563.25;;;10.74;20.92
9415;BME280;4746;35.664;139.738;2023-01-28T02:51:06;99570.84;;;10.89;21.16
9415;BME280;4746;35.664;139.738;2023-01-28T02:53:56;99562.22;;;11.04;20.93
9415;BME280;4746;35.664;139.738;2023-01-28T02:56:51;99562.97;;;11.23;20.68
9415;BME280;4746;35.664;139.738;2023-01-28T02:59:38;99544.94;;;11.37;20.65
9415;BME280;4746;35.664;139.738;2023-01-28T03:05:41;99546.31;;;11.78;20.69
9415;BME280;4746;35.664;139.738;2023-01-28T03:11:42;99526.25;;;12.20;20.08
9415;BME280;4746;35.664;139.738;2023-01-28T03:14:31;99519.34;;;12.25;20.05
9415;BME280;4746;35.664;139.738;2023-01-28T03:17:52;99508.22;;;12.26;19.75
9415;BME280;4746;35.664;139.738;2023-01-28T03:24:27;99527.94;;;12.21;19.55
9415;BME280;4746;35.664;139.738;2023-01-28T03:28:16;99516.13;;;12.05;19.29
9415;BME280;4746;35.664;139.738;2023-01-28T03:33:36;99509.13;;;12.19;19.23
9415;BME280;4746;35.664;139.738;2023-01-28T03:36:21;99510.69;;;12.31;19.38
9415;BME280;4746;35.664;139.738;2023-01-28T03:39:08;99507.84;;;12.57;19.34
9415;BME280;4746;35.664;139.738;2023-01-28T03:41:35;99504.97;;;12.78;19.46
9415;BME280;4746;35.664;139.738;2023-01-28T03:44:03;99497.03;;;12.96;19.19
9415;BME280;4746;35.664;139.738;2023-01-28T03:46:49;99489.16;;;13.08;18.78
9415;BME280;4746;35.664;139.738;2023-01-28T03:49:17;99498.59;;;13.08;18.83
9415;BME280;4746;35.664;139.738;2023-01-28T03:51:45;99492.41;;;13.20;18.46
9415;BME280;4746;35.664;139.738;2023-01-28T03:54:13;99498.44;;;13.72;18.09
9415;BME280;4746;35.664;139.738;2023-01-28T03:56:42;99492.47;;;14.17;17.64
9415;BME280;4746;35.664;139.738;2023-01-28T03:59:10;99495.41;;;14.43;17.50
9415;BME280;4746;35.664;139.738;2023-01-28T04:01:37;99490.38;;;14.77;17.55
9415;BME280;4746;35.664;139.738;2023-01-28T04:04:05;99486.16;;;15.11;17.27
9415;BME280;4746;35.664;139.738;2023-01-28T04:06:32;99477.28;;;15.24;17.32
9415;BME280;4746;35.664;139.738;2023-01-28T04:09:00;99463.88;;;15.78;17.36
9415;BME280;4746;35.664;139.738;2023-01-28T04:11:27;99462.31;;;16.04;16.61
9415;BME280;4746;35.664;139.738;2023-01-28T04:13:55;99456.94;;;15.80;16.67
9415;BME280;4746;35.664;139.738;2023-01-28T04:16:22;99464.19;;;15.66;16.99
9415;BME280;4746;35.664;139.738;2023-01-28T04:18:50;99455.94;;;16.16;16.94
9415;BME280;4746;35.664;139.738;2023-01-28T04:21:18;99446.56;;;18.27;16.32
9415;BME280;4746;35.664;139.738;2023-01-28T04:23:46;99449.09;;;20.39;13.92
9415;BME280;4746;35.664;139.738;2023-01-28T04:26:14;99439.72;;;21.63;13.84
9415;BME280;4746;35.664;139.738;2023-01-28T04:28:42;99448.63;;;22.58;13.21
9415;BME280;4746;35.664;139.738;2023-01-28T04:31:09;99431.53;;;23.14;12.86
9415;BME280;4746;35.664;139.738;2023-01-28T04:33:37;99431.00;;;23.68;12.59
9415;BME280;4746;35.664;139.738;2023-01-28T04:36:05;99438.88;;;24.41;12.40
9415;BME280;4746;35.664;139.738;2023-01-28T04:38:32;99426.34;;;25.52;12.16
9415;BME280;4746;35.664;139.738;2023-01-28T04:41:02;99432.28;;;26.07;11.65
9415;BME280;4746;35.664;139.738;2023-01-28T04:43:29;99434.25;;;26.16;11.36
9415;BME280;4746;35.664;139.738;2023-01-28T04:45:57;99443.31;;;25.99;10.99
9415;BME280;4746;35.664;139.738;2023-01-28T04:48:24;99439.22;;;26.08;10.75
9415;BME280;4746;35.664;139.738;2023-01-28T04:50:52;99438.78;;;26.64;11.22
9415;BME280;4746;35.664;139.738;2023-01-28T04:53:20;99428.03;;;27.38;11.22
9415;BME280;4746;35.664;139.738;2023-01-28T04:55:48;99431.03;;;27.91;10.71
9415;BME280;4746;35.664;139.738;2023-01-28T04:58:16;99434.16;;;28.30;10.29
9415;BME280;4746;35.664;139.738;2023-01-28T05:00:44;99442.06;;;28.63;10.42
9415;BME280;4746;35.664;139.738;2023-01-28T05:03:12;99445.69;;;28.95;10.23
9415;BME280;4746;35.664;139.738;2023-01-28T05:05:39;99445.28;;;29.21;10.03
9415;BME280;4746;35.664;139.738;2023-01-28T05:08:08;99436.72;;;29.40;9.50
9415;BME280;4746;35.664;139.738;2023-01-28T05:10:35;99436.59;;;29.30;9.28
9415;BME280;4746;35.664;139.738;2023-01-28T05:13:03;99447.91;;;29.63;9.15
9415;BME280;4746;35.664;139.738;2023-01-28T05:15:30;99451.88;;;29.58;9.13
9415;BME280;4746;35.664;139.738;2023-01-28T05:17:58;99450.97;;;28.95;9.48
9415;BME280;4746;35.664;139.738;2023-01-28T05:20:26;99456.31;;;28.39;9.41
9415;BME280;4746;35.664;139.738;2023-01-28T05:22:53;99457.03;;;28.52;9.57
9415;BME280;4746;35.664;139.738;2023-01-28T05:25:21;99448.63;;;28.47;9.71
9415;BME280;4746;35.664;139.738;2023-01-28T05:27:52;99457.34;;;27.34;9.55
9415;BME280;4746;35.664;139.738;2023-01-28T05:30:21;99459.75;;;24.96;10.36
9415;BME280;4746;35.664;139.738;2023-01-28T05:32:49;99465.00;;;23.54;11.59
9415;BME280;4746;35.664;139.738;2023-01-28T05:35:20;99472.28;;;23.03;11.03
9415;BME280;4746;35.664;139.738;2023-01-28T05:37:48;99480.06;;;22.72;12.06
9415;BME280;4746;35.664;139.738;2023-01-28T05:40:16;99480.19;;;22.86;12.34
9415;BME280;4746;35.664;139.738;2023-01-28T05:42:43;99467.06;;;23.63;11.75
9415;BME280;4746;35.664;139.738;2023-01-28T05:45:11;99472.97;;;23.96;12.22
9415;BME280;4746;35.664;139.738;2023-01-28T05:47:39;99461.78;;;24.08;11.89
9415;BME280;4746;35.664;139.738;2023-01-28T05:50:08;99477.53;;;23.63;11.99
9415;BME280;4746;35.664;139.738;2023-01-28T05:52:36;99474.81;;;23.35;12.26
9415;BME280;4746;35.664;139.738;2023-01-28T05:55:04;99478.09;;;23.68;12.45
9415;BME280;4746;35.664;139.738;2023-01-28T05:57:32;99482.38;;;24.00;12.41
9415;BME280;4746;35.664;139.738;2023-01-28T05:59:59;99489.38;;;24.43;11.83
9415;BME280;4746;35.664;139.738;2023-01-28T06:02:27;99488.00;;;24.51;12.01
9415;BME280;4746;35.664;139.738;2023-01-28T06:04:54;99492.22;;;23.66;11.77
9415;BME280;4746;35.664;139.738;2023-01-28T06:07:22;99498.50;;;23.17;12.26
9415;BME280;4746;35.664;139.738;2023-01-28T06:09:50;99509.84;;;23.01;12.11
9415;BME280;4746;35.664;139.738;2023-01-28T06:12:17;99507.41;;;22.98;12.53
9415;BME280;4746;35.664;139.738;2023-01-28T06:14:45;99518.06;;;22.62;12.77
9415;BME280;4746;35.664;139.738;2023-01-28T06:17:12;99501.13;;;21.86;13.11
9415;BME280;4746;35.664;139.738;2023-01-28T06:19:40;99506.97;;;21.02;13.62
9415;BME280;4746;35.664;139.738;2023-01-28T06:22:07;99509.72;;;20.23;14.00
9415;BME280;4746;35.664;139.738;2023-01-28T06:24:35;99515.25;;;19.53;14.12
9415;BME280;4746;35.664;139.738;2023-01-28T06:27:02;99523.09;;;19.07;14.37
9415;BME280;4746;35.664;139.738;2023-01-28T06:29:30;99530.78;;;18.87;14.53
9415;BME280;4746;35.664;139.738;2023-01-28T06:31:57;99528.66;;;18.98;14.15
9415;BME280;4746;35.664;139.738;2023-01-28T06:34:25;99535.50;;;19.24;14.31
9415;BME280;4746;35.664;139.738;2023-01-28T06:36:52;99535.34;;;19.27;14.30
9415;BME280;4746;35.664;139.738;2023-01-28T06:39:21;99539.75;;;19.48;14.50
9415;BME280;4746;35.664;139.738;2023-01-28T06:41:49;99553.94;;;19.39;14.69
9415;BME280;4746;35.664;139.738;2023-01-28T06:44:17;99559.34;;;18.87;14.62
9415;BME280;4746;35.664;139.738;2023-01-28T06:46:44;99548.56;;;18.28;15.22
9415;BME280;4746;35.664;139.738;2023-01-28T06:49:12;99556.94;;;17.84;15.57
9415;BME280;4746;35.664;139.738;2023-01-28T06:51:41;99548.63;;;17.47;15.53
9415;BME280;4746;35.664;139.738;2023-01-28T06:54:08;99548.06;;;17.09;15.54
9415;BME280;4746;35.664;139.738;2023-01-28T06:56:38;99554.34;;;16.73;16.06
9415;BME280;4746;35.664;139.738;2023-01-28T06:59:06;99549.06;;;16.46;16.47
9415;BME280;4746;35.664;139.738;2023-01-28T07:01:33;99563.38;;;16.27;16.74
9415;BME280;4746;35.664;139.738;2023-01-28T07:04:01;99563.66;;;16.15;16.88
9415;BME280;4746;35.664;139.738;2023-01-28T07:06:29;99572.38;;;16.11;16.91
9415;BME280;4746;35.664;139.738;2023-01-28T07:08:56;99567.69;;;15.94;16.70
9415;BME280;4746;35.664;139.738;2023-01-28T07:11:24;99578.56;;;15.71;17.11
9415;BME280;4746;35.664;139.738;2023-01-28T07:13:51;99582.63;;;15.45;17.23
9415;BME280;4746;35.664;139.738;2023-01-28T07:16:19;99595.88;;;15.30;17.65
9415;BME280;4746;35.664;139.738;2023-01-28T07:18:46;99588.50;;;15.12;17.35
9415;BME280;4746;35.664;139.738;2023-01-28T07:21:14;99595.03;;;14.87;17.05
9415;BME280;4746;35.664;139.738;2023-01-28T07:23:41;99605.88;;;14.62;17.47
9415;BME280;4746;35.664;139.738;2023-01-28T07:26:09;99617.53;;;14.36;17.97
9415;BME280;4746;35.664;139.738;2023-01-28T07:28:37;99611.88;;;14.14;18.24
9415;BME280;4746;35.664;139.738;2023-01-28T07:31:04;99617.38;;;13.93;18.22
9415;BME280;4746;35.664;139.738;2023-01-28T07:33:32;99616.84;;;13.72;18.37
9415;BME280;4746;35.664;139.738;2023-01-28T07:35:59;99613.69;;;13.55;18.61
9415;BME280;4746;35.664;139.738;2023-01-28T07:38:27;99621.63;;;13.39;18.82
9415;BME280;4746;35.664;139.738;2023-01-28T07:40:55;99619.41;;;13.14;19.16
9415;BME280;4746;35.664;139.738;2023-01-28T07:43:22;99622.22;;;12.94;19.08
9415;BME280;4746;35.664;139.738;2023-01-28T07:45:50;99619.81;;;12.75;19.38
9415;BME280;4746;35.664;139.738;2023-01-28T07:48:17;99617.47;;;12.58;19.35
9415;BME280;4746;35.664;139.738;2023-01-28T07:50:45;99618.47;;;12.43;19.38
9415;BME280;4746;35.664;139.738;2023-01-28T07:53:15;99614.31;;;12.28;19.36
9415;BME280;4746;35.664;139.738;2023-01-28T07:55:43;99617.06;;;12.13;19.99
9415;BME280;4746;35.664;139.738;2023-01-28T07:58:11;99619.72;;;11.98;20.05
9415;BME280;4746;35.664;139.738;2023-01-28T08:00:39;99616.44;;;11.84;20.24
9415;BME280;4746;35.664;139.738;2023-01-28T08:03:13;99622.53;;;11.72;20.54
9415;BME280;4746;35.664;139.738;2023-01-28T08:05:53;99624.28;;;11.62;20.56
9415;BME280;4746;35.664;139.738;2023-01-28T08:08:23;99625.19;;;11.55;20.44
9415;BME280;4746;35.664;139.738;2023-01-28T08:10:51;99630.31;;;11.49;20.89
9415;BME280;4746;35.664;139.738;2023-01-28T08:13:20;99638.06;;;11.45;20.73
9415;BME280;4746;35.664;139.738;2023-01-28T08:15:48;99635.53;;;11.37;20.73
9415;BME280;4746;35.664;139.738;2023-01-28T08:18:16;99631.31;;;11.32;20.87
9415;BME280;4746;35.664;139.738;2023-01-28T08:20:44;99634.72;;;11.26;21.14
9415;BME280;4746;35.664;139.738;2023-01-28T08:23:18;99656.97;;;11.23;21.41
9415;BME280;4746;35.664;139.738;2023-01-28T08:25:47;99663.00;;;11.16;20.72
9415;BME280;4746;35.664;139.738;2023-01-28T08:28:20;99660.44;;;11.13;21.27
9415;BME280;4746;35.664;139.738;2023-01-28T08:30:47;99661.31;;;11.07;21.13
9415;BME280;4746;35.664;139.738;2023-01-28T08:33:17;99653.66;;;11.03;20.75
9415;BME280;4746;35.664;139.738;2023-01-28T08:35:45;99670.75;;;10.95;21.28
9415;BME280;4746;35.664;139.738;2023-01-28T08:38:14;99675.91;;;10.89;20.87
9415;BME280;4746;35.664;139.738;2023-01-28T08:40:47;99684.47;;;10.81;21.22
9415;BME280;4746;35.664;139.738;2023-01-28T08:43:16;99667.44;;;10.71;20.94
9415;BME280;4746;35.664;139.738;2023-01-28T08:45:44;99678.53;;;10.64;21.04
9415;BME280;4746;35.664;139.738;2023-01-28T08:48:16;99672.59;;;10.59;21.06
9415;BME280;4746;35.664;139.738;2023-01-28T08:50:44;99670.03;;;10.53;21.32
9415;BME280;4746;35.664;139.738;2023-01-28T08:53:18;99677.69;;;10.54;21.26
9415;BME280;4746;35.664;139.738;2023-01-28T08:55:46;99673.44;;;10.52;21.44
9415;BME280;4746;35.664;139.738;2023-01-28T08:58:16;99674.28;;;10.52;21.48
9415;BME280;4746;35.664;139.738;2023-01-28T09:00:45;99678.56;;;10.53;22.18
9415;BME280;4746;35.664;139.738;2023-01-28T09:03:13;99662.34;;;10.51;21.88
9415;BME280;4746;35.664;139.738;2023-01-28T09:05:41;99664.91;;;10.51;21.59
9415;BME280;4746;35.664;139.738;2023-01-28T09:08:12;99674.28;;;10.52;21.37
9415;BME280;4746;35.664;139.738;2023-01-28T09:10:41;99677.72;;;10.48;22.22
9415;BME280;4746;35.664;139.738;2023-01-28T09:13:14;99676.84;;;10.45;22.21
9415;BME280;4746;35.664;139.738;2023-01-28T09:15:42;99684.53;;;10.40;22.05
9415;BME280;4746;35.664;139.738;2023-01-28T09:18:10;99674.31;;;10.30;21.81
9415;BME280;4746;35.664;139.738;2023-01-28T09:20:38;99677.75;;;10.28;22.21
9415;BME280;4746;35.664;139.738;2023-01-28T09:23:06;99682.88;;;10.28;22.42
9415;BME280;4746;35.664;139.738;2023-01-28T09:25:34;99679.44;;;10.26;22.35
9415;BME280;4746;35.664;139.738;2023-01-28T09:28:03;99681.16;;;10.27;22.31
9415;BME280;4746;35.664;139.738;2023-01-28T09:30:31;99690.53;;;10.28;22.12
9415;BME280;4746;35.664;139.738;2023-01-28T09:32:59;99677.72;;;10.25;22.25
9415;BME280;4746;35.664;139.738;2023-01-28T09:35:26;99685.44;;;10.22;22.01
9415;BME280;4746;35.664;139.738;2023-01-28T09:37:57;99682.84;;;10.19;21.99
9415;BME280;4746;35.664;139.738;2023-01-28T09:40:36;99681.16;;;10.16;22.25
9415;BME280;4746;35.664;139.738;2023-01-28T09:46:10;99683.72;;;10.03;22.32
9415;BME280;4746;35.664;139.738;2023-01-28T09:48:52;99687.97;;;10.01;22.15
9415;BME280;4746;35.664;139.738;2023-01-28T09:51:46;99692.25;;;9.99;22.34
9415;BME280;4746;35.664;139.738;2023-01-28T09:54:49;99699.88;;;9.96;21.79
9415;BME280;4746;35.664;139.738;2023-01-28T09:57:23;99704.13;;;9.85;22.38
9415;BME280;4746;35.664;139.738;2023-01-28T09:59:52;99706.66;;;9.79;22.64
9415;BME280;4746;35.664;139.738;2023-01-28T10:08:28;99715.16;;;9.66;22.41
9415;BME280;4746;35.664;139.738;2023-01-28T10:16:42;99722.81;;;9.53;23.28
9415;BME280;4746;35.664;139.738;2023-01-28T10:19:37;99717.69;;;9.51;22.70
9415;BME280;4746;35.664;139.738;2023-01-28T10:22:33;99734.72;;;9.49;23.15
9415;BME280;4746;35.664;139.738;2023-01-28T10:25:12;99726.19;;;9.44;23.09
9415;BME280;4746;35.664;139.738;2023-01-28T10:27:42;99726.19;;;9.43;23.48
9415;BME280;4746;35.664;139.738;2023-01-28T10:30:23;99723.63;;;9.46;23.58
9415;BME280;4746;35.664;139.738;2023-01-28T10:33:02;99730.44;;;9.42;23.47
9415;BME280;4746;35.664;139.738;2023-01-28T10:35:38;99727.03;;;9.40;23.42
9415;BME280;4746;35.664;139.738;2023-01-28T10:38:21;99733.84;;;9.38;23.08
9415;BME280;4746;35.664;139.738;2023-01-28T10:40:50;99748.31;;;9.35;23.38
9415;BME280;4746;35.664;139.738;2023-01-28T10:43:33;99753.41;;;9.35;23.52
9415;BME280;4746;35.664;139.738;2023-01-28T10:46:42;99755.13;;;9.39;23.31
9415;BME280;4746;35.664;139.738;2023-01-28T10:49:19;99755.97;;;9.33;23.41
9415;BME280;4746;35.664;139.738;2023-01-28T10:51:51;99762.75;;;9.31;23.42
9415;BME280;4746;35.664;139.738;2023-01-28T10:54:28;99753.41;;;9.32;23.53
9415;BME280;4746;35.664;139.738;2023-01-28T10:57:02;99766.16;;;9.30;23.88
9415;BME280;4746;35.664;139.738;2023-01-28T10:59:34;99755.94;;;9.27;24.11
9415;BME280;4746;35.664;139.738;2023-01-28T11:02:33;99757.63;;;9.25;24.14
9415;BME280;4746;35.664;139.738;2023-01-28T11:05:25;99755.88;;;9.18;23.90
9415;BME280;4746;35.664;139.738;2023-01-28T11:08:15;99760.13;;;9.12;24.04
9415;BME280;4746;35.664;139.738;2023-01-28T11:10:44;99754.13;;;9.05;23.98
9415;BME280;4746;35.664;139.738;2023-01-28T11:13:23;99748.16;;;9.02;24.28
9415;BME280;4746;35.664;139.738;2023-01-28T11:16:16;99742.13;;;8.96;24.15
9415;BME280;4746;35.664;139.738;2023-01-28T11:19:01;99745.53;;;8.92;24.18
9415;BME280;4746;35.664;139.738;2023-01-28T11:21:32;99748.91;;;8.89;25.51
9415;BME280;4746;35.664;139.738;2023-01-28T11:24:15;99748.97;;;8.97;25.04
9415;BME280;4746;35.664;139.738;2023-01-28T11:26:51;99755.75;;;8.95;25.35
9415;BME280;4746;35.664;139.738;2023-01-28T11:29:29;99762.53;;;8.90;24.97
9415;BME280;4746;35.664;139.738;2023-01-28T11:32:00;99767.59;;;8.81;25.05
9415;BME280;4746;35.664;139.738;2023-01-28T11:34:33;99768.41;;;8.74;25.09
9415;BME280;4746;35.664;139.738;2023-01-28T11:37:13;99778.53;;;8.62;24.48
9415;BME280;4746;35.664;139.738;2023-01-28T11:39:44;99775.84;;;8.47;24.84
9415;BME280;4746;35.664;139.738;2023-01-28T11:42:19;99784.31;;;8.43;25.23
9415;BME280;4746;35.664;139.738;2023-01-28T11:44:48;99784.25;;;8.37;24.98
9415;BME280;4746;35.664;139.738;2023-01-28T11:47:34;99778.31;;;8.35;24.67
9415;BME280;4746;35.664;139.738;2023-01-28T11:50:38;99782.53;;;8.36;24.71
9415;BME280;4746;35.664;139.738;2023-01-28T11:53:33;99785.97;;;8.35;24.76
9415;BME280;4746;35.664;139.738;2023-01-28T12:05:39;99806.34;;;8.32;25.30
9415;BME280;4746;35.664;139.738;2023-01-28T12:08:28;99810.59;;;8.31;25.27
9415;BME280;4746;35.664;139.738;2023-01-28T12:21:09;99791.13;;;8.44;25.05
9415;BME280;4746;35.664;139.738;2023-01-28T12:26:48;99776.66;;;8.43;25.20
9415;BME280;4746;35.664;139.738;2023-01-28T12:32:18;99789.47;;;8.46;25.25
9415;BME280;4746;35.664;139.738;2023-01-28T12:41:36;99787.69;;;8.40;25.72
9415;BME280;4746;35.664;139.738;2023-01-28T12:44:22;99797.91;;;8.42;26.11
9415;BME280;4746;35.664;139.738;2023-01-28T12:47:06;99797.06;;;8.43;25.49
9415;BME280;4746;35.664;139.738;2023-01-28T12:49:49;99792.78;;;8.39;25.92
9415;BME280;4746;35.664;139.738;2023-01-28T12:52:34;99794.41;;;8.29;25.07
9415;BME280;4746;35.664;139.738;2023-01-28T12:55:37;99788.38;;;8.22;25.42
9415;BME280;4746;35.664;139.738;2023-01-28T12:58:28;99789.09;;;8.13;25.71
9415;BME280;4746;35.664;139.738;2023-01-28T13:01:07;99797.56;;;8.06;26.14
9415;BME280;4746;35.664;139.738;2023-01-28T13:04:00;99802.59;;;8.00;26.69
9415;BME280;4746;35.664;139.738;2023-01-28T13:06:42;99801.59;;;7.89;27.04
9415;BME280;4746;35.664;139.738;2023-01-28T13:09:19;99801.53;;;7.82;27.30
9415;BME280;4746;35.664;139.738;2023-01-28T13:11:52;99805.72;;;7.75;28.18
9415;BME280;4746;35.664;139.738;2023-01-28T13:14:27;99803.94;;;7.71;28.40
9415;BME280;4746;35.664;139.738;2023-01-28T13:17:09;99798.84;;;7.68;28.47
9415;BME280;4746;35.664;139.738;2023-01-28T13:19:41;99803.88;;;7.65;28.99
9415;BME280;4746;35.664;139.738;2023-01-28T13:22:32;99803.09;;;7.68;28.97
9415;BME280;4746;35.664;139.738;2023-01-28T13:25:34;99797.09;;;7.66;29.13
9415;BME280;4746;35.664;139.738;2023-01-28T13:28:23;99805.56;;;7.62;28.84
9415;BME280;4746;35.664;139.738;2023-01-28T13:30:51;99800.41;;;7.57;29.05
9415;BME280;4746;35.664;139.738;2023-01-28T13:33:32;99819.13;;;7.59;29.09
9415;BME280;4746;35.664;139.738;2023-01-28T13:36:25;99821.69;;;7.61;28.61
9415;BME280;4746;35.664;139.738;2023-01-28T13:41:42;99817.34;;;7.56;28.37
9415;BME280;4746;35.664;139.738;2023-01-28T13:44:29;99819.13;;;7.59;28.30
9415;BME280;4746;35.664;139.738;2023-01-28T13:47:33;99816.53;;;7.58;28.29
9415;BME280;4746;35.664;139.738;2023-01-28T13:50:14;99825.81;;;7.52;28.21
9415;BME280;4746;35.664;139.738;2023-01-28T13:53:01;99820.72;;;7.52;28.29
9415;BME280;4746;35.664;139.738;2023-01-28T13:55:37;99830.84;;;7.49;28.22
9415;BME280;4746;35.664;139.738;2023-01-28T14:07:02;99829.91;;;7.41;27.85
9415;BME280;4746;35.664;139.738;2023-01-28T14:18:50;99830.50;;;7.22;27.36
9415;BME280;4746;35.664;139.738;2023-01-28T14:21:24;99832.22;;;7.23;27.29
9415;BME280;4746;35.664;139.738;2023-01-28T14:23:56;99834.75;;;7.21;27.55
9415;BME280;4746;35.664;139.738;2023-01-28T14:27:20;99838.97;;;7.21;27.16
9415;BME280;4746;35.664;139.738;2023-01-28T14:32:50;99838.78;;;7.07;27.43
9415;BME280;4746;35.664;139.738;2023-01-28T14:35:33;99837.09;;;7.08;27.57
9415;BME280;4746;35.664;139.738;2023-01-28T14:38:23;99850.63;;;7.04;27.26
9415;BME280;4746;35.664;139.738;2023-01-28T14:40:55;99838.63;;;6.98;27.52
9415;BME280;4746;35.664;139.738;2023-01-28T14:43:26;99842.00;;;6.96;27.32
9415;BME280;4746;35.664;139.738;2023-01-28T14:46:30;99849.69;;;6.97;27.89
9415;BME280;4746;35.664;139.738;2023-01-28T14:49:31;99841.97;;;6.93;27.73
9415;BME280;4746;35.664;139.738;2023-01-28T14:57:57;99848.63;;;6.85;27.56
9415;BME280;4746;35.664;139.738;2023-01-28T15:00:30;99859.63;;;6.84;28.02
9415;BME280;4746;35.664;139.738;2023-01-28T15:02:58;99852.78;;;6.82;27.93
9415;BME280;4746;35.664;139.738;2023-01-28T15:05:28;99854.59;;;6.86;28.18
9415;BME280;4746;35.664;139.738;2023-01-28T15:07:56;99850.34;;;6.86;28.19
9415;BME280;4746;35.664;139.738;2023-01-28T15:10:36;99844.50;;;6.93;27.81
9415;BME280;4746;35.664;139.738;2023-01-28T15:13:25;99857.25;;;6.93;27.88
9415;BME280;4746;35.664;139.738;2023-01-28T15:15:55;99849.53;;;6.88;28.13
9415;BME280;4746;35.664;139.738;2023-01-28T15:18:42;99839.34;;;6.88;28.07
9415;BME280;4746;35.664;139.738;2023-01-28T15:21:10;99835.06;;;6.88;28.31
9415;BME280;4746;35.664;139.738;2023-01-28T15:23:41;99842.69;;;6.85;28.15